Haukur — OZ2119 — position and weather

sailwx.info

Track history (hours):
 
Tides and Currents Weather Stations Pressure Air Temp Water Temp Dewpoint Dewpoint Depression Visibility Wind Speed Wind Dir Waves Ship Positions

Haukur

Last reported at 2016-Dec-09 09:33 UTC. Time now 2016-Dec-09 09:50 UTC.
Position N 55°17' E 012°44'.

Length 75 m; draft 4.1 m.

Type: Cargo ship. MMSI: 231812000.

Date/timePositionNaut miles runAvg speedWind from/ knotsBaromVisibWave heightAir tempDewpointWater temp
2016-Dec-09 09:33N 55°17' E 012°44'9 8.9
2016-Dec-09 08:34N 55°21' E 012°31'9 9.0
2016-Dec-09 07:34N 55°26' E 012°18'4 3.4
2016-Dec-09 06:32N 55°27' E 012°12'0 0.0
2016-Dec-09 05:32N 55°27' E 012°12'0 0.0
2016-Dec-09 04:26N 55°27' E 012°12'0 0.0
2016-Dec-09 03:32N 55°27' E 012°12'0 0.0
2016-Dec-09 02:32N 55°27' E 012°12'0 0.0
2016-Dec-09 01:32N 55°27' E 012°12'0 0.0
2016-Dec-09 00:32N 55°27' E 012°12'0 0.0
2016-Dec-08 23:32N 55°27' E 012°12'0 0.0
2016-Dec-08 22:33N 55°27' E 012°12'0 0.0
2016-Dec-08 21:33N 55°27' E 012°12'0 0.0
2016-Dec-08 20:33N 55°27' E 012°12'0 0.0
2016-Dec-08 19:33N 55°27' E 012°12'1 1.3
2016-Dec-08 18:33N 55°28' E 012°14'8 8.1
2016-Dec-08 17:33N 55°29' E 012°28'9 8.6
2016-Dec-08 16:33N 55°33' E 012°42'10 9.9
2016-Dec-08 15:33N 55°43' E 012°41'9 8.9
2016-Dec-08 14:34N 55°51' E 012°40'9 9.0
2016-Dec-08 13:33N 56°00' E 012°38'9 9.3
2016-Dec-08 12:33N 56°08' E 012°28'9 9.4
2016-Dec-08 11:33N 56°14' E 012°15'9 8.9
2016-Dec-08 10:32N 56°20' E 012°03'41 9.2
2016-Dec-08 06:07N 56°59' E 011°43'5 8.6
2016-Dec-08 05:32N 57°04' E 011°40'8 8.7
2016-Dec-08 04:34N 57°12' E 011°35'9 8.7
2016-Dec-08 03:33N 57°20' E 011°29'9 9.0
2016-Dec-08 02:33N 57°28' E 011°23'9 9.3
2016-Dec-08 01:33N 57°34' E 011°10'9 9.2
2016-Dec-08 00:33N 57°41' E 010°58'10 9.7
2016-Dec-07 23:33N 57°47' E 010°44'10 9.9
2016-Dec-07 22:33N 57°48' E 010°25'103 8.5
2016-Dec-07 10:32N 57°53' E 007°13'7 7.3
2016-Dec-07 09:33N 57°53' E 006°59'7 7.3
2016-Dec-07 08:33N 57°57' E 006°48'8 7.7
2016-Dec-07 07:33N 58°01' E 006°35'7 7.3
2016-Dec-07 06:33N 58°06' E 006°24'7 6.8
2016-Dec-07 05:32N 58°11' E 006°15'7 6.7
2016-Dec-07 04:33N 58°15' E 006°05'7 7.0
2016-Dec-07 03:33N 58°20' E 005°55'7 7.3
2016-Dec-07 02:33N 58°25' E 005°45'7 6.7
2016-Dec-07 01:33N 58°29' E 005°36'7 7.2
2016-Dec-07 00:34N 58°35' E 005°27'7 7.1
2016-Dec-06 23:34N 58°41' E 005°20'7 6.5
2016-Dec-06 22:34N 58°46' E 005°13'7 6.6
2016-Dec-06 21:33N 58°52' E 005°07'8 7.8
2016-Dec-06 20:34N 58°59' E 004°59'250 5.0
2016-Dec-04 18:11N 63°03' E 006°46'3 3.8
2016-Dec-04 17:22N 63°05' E 006°52'3 3.9
2016-Dec-04 16:33N 63°07' E 006°57'4 4.0
2016-Dec-04 15:33N 63°09' E 007°04'4 3.6
2016-Dec-04 14:33N 63°11' E 007°11'4 3.7
2016-Dec-04 13:33N 63°13' E 007°18'3 2.9
2016-Dec-04 12:33N 63°14' E 007°24'3 2.8
2016-Dec-04 11:33N 63°15' E 007°30'2 2.0
2016-Dec-04 10:33N 63°15' E 007°34'3 3.3
2016-Dec-04 09:33N 63°14' E 007°41'7 6.6
2016-Dec-04 08:33N 63°07' E 007°41'4 3.8
2016-Dec-04 07:31N 63°03' E 007°39'0 0.0
2016-Dec-04 06:31N 63°03' E 007°40'0 0.0
2016-Dec-04 05:31N 63°03' E 007°39'0 0.0
2016-Dec-04 04:31N 63°03' E 007°39'0 0.0
2016-Dec-04 03:31N 63°03' E 007°39'0 0.0
2016-Dec-04 02:31N 63°03' E 007°39'0 0.0
2016-Dec-04 01:31N 63°03' E 007°39'0 0.0
2016-Dec-04 00:31N 63°03' E 007°39'0 0.0
2016-Dec-03 23:31N 63°03' E 007°39'0 0.0
2016-Dec-03 22:33N 63°03' E 007°39'3 3.0
2016-Dec-03 21:33N 63°06' E 007°41'8 7.6
2016-Dec-03 20:33N 63°13' E 007°46'8 7.9
2016-Dec-03 19:33N 63°19' E 007°34'9 8.5
2016-Dec-03 18:33N 63°28' E 007°33'9 7.8
2016-Dec-03 17:27N 63°36' E 007°38'194 8.4
2016-Dec-02 18:25N 66°23' E 011°29'7 7.5
2016-Dec-02 17:33N 66°29' E 011°37'8 7.7
2016-Dec-02 16:33N 66°35' E 011°47'8 8.2
2016-Dec-02 15:33N 66°42' E 011°59'36 8.8
2016-Dec-02 11:28N 67°11' E 012°53'1010.7
2016-Dec-02 10:33N 67°19' E 013°08'5252.0
2016-Dec-02 09:33N 67°58' E 014°38'7 6.9
2016-Dec-02 08:32N 68°02' E 014°53'7 6.8
2016-Dec-02 07:32N 68°06' E 015°08'6 6.0
2016-Dec-02 06:31N 68°09' E 015°22'6 6.3
2016-Dec-02 05:33N 68°13' E 015°35'6 6.2
2016-Dec-02 04:33N 68°12' E 015°18'7 6.6
2016-Dec-02 03:32N 68°12' E 015°00'6 5.7
2016-Dec-02 02:32N 68°18' E 014°58'7 6.5
2016-Dec-02 01:33N 68°24' E 015°06'6 6.1
2016-Dec-02 00:33N 68°29' E 015°12'7 6.6
2016-Dec-01 23:33N 68°34' E 014°60'1 1.1
2016-Dec-01 22:33N 68°35' E 014°57'0 0.0
2016-Dec-01 21:32N 68°35' E 014°57'0 0.0
2016-Dec-01 20:31N 68°35' E 014°57'0 0.0
2016-Dec-01 19:32N 68°35' E 014°57'0 0.0
2016-Dec-01 18:30N 68°35' E 014°57'44 2.0
2016-Nov-30 20:30N 67°54' E 014°11'  
Track history (hours):
 
Tides and Currents Weather Stations Pressure Air Temp Water Temp Dewpoint Dewpoint Depression Visibility Wind Speed Wind Dir Waves Ship Positions

Haukur

Last reported at 2016-Dec-09 09:33 UTC. Time now 2016-Dec-09 09:50 UTC.
Position N 55°17' E 012°44'.

Length 75 m; draft 4.1 m.

Type: Cargo ship. MMSI: 231812000.

Date/timePositionNaut miles runAvg speedWind from/ knotsBaromVisibWave heightAir tempDewpointWater temp
2016-Dec-09 09:33N 55°17' E 012°44'9 8.9
2016-Dec-09 08:34N 55°21' E 012°31'9 9.0
2016-Dec-09 07:34N 55°26' E 012°18'4 3.4
2016-Dec-09 06:32N 55°27' E 012°12'0 0.0
2016-Dec-09 05:32N 55°27' E 012°12'0 0.0
2016-Dec-09 04:26N 55°27' E 012°12'0 0.0
2016-Dec-09 03:32N 55°27' E 012°12'0 0.0
2016-Dec-09 02:32N 55°27' E 012°12'0 0.0
2016-Dec-09 01:32N 55°27' E 012°12'0 0.0
2016-Dec-09 00:32N 55°27' E 012°12'0 0.0
2016-Dec-08 23:32N 55°27' E 012°12'0 0.0
2016-Dec-08 22:33N 55°27' E 012°12'0 0.0
2016-Dec-08 21:33N 55°27' E 012°12'0 0.0
2016-Dec-08 20:33N 55°27' E 012°12'0 0.0
2016-Dec-08 19:33N 55°27' E 012°12'1 1.3
2016-Dec-08 18:33N 55°28' E 012°14'8 8.1
2016-Dec-08 17:33N 55°29' E 012°28'9 8.6
2016-Dec-08 16:33N 55°33' E 012°42'10 9.9
2016-Dec-08 15:33N 55°43' E 012°41'9 8.9
2016-Dec-08 14:34N 55°51' E 012°40'9 9.0
2016-Dec-08 13:33N 56°00' E 012°38'9 9.3
2016-Dec-08 12:33N 56°08' E 012°28'9 9.4
2016-Dec-08 11:33N 56°14' E 012°15'9 8.9
2016-Dec-08 10:32N 56°20' E 012°03'41 9.2
2016-Dec-08 06:07N 56°59' E 011°43'5 8.6
2016-Dec-08 05:32N 57°04' E 011°40'8 8.7
2016-Dec-08 04:34N 57°12' E 011°35'9 8.7
2016-Dec-08 03:33N 57°20' E 011°29'9 9.0
2016-Dec-08 02:33N 57°28' E 011°23'9 9.3
2016-Dec-08 01:33N 57°34' E 011°10'9 9.2
2016-Dec-08 00:33N 57°41' E 010°58'10 9.7
2016-Dec-07 23:33N 57°47' E 010°44'10 9.9
2016-Dec-07 22:33N 57°48' E 010°25'103 8.5
2016-Dec-07 10:32N 57°53' E 007°13'7 7.3
2016-Dec-07 09:33N 57°53' E 006°59'7 7.3
2016-Dec-07 08:33N 57°57' E 006°48'8 7.7
2016-Dec-07 07:33N 58°01' E 006°35'7 7.3
2016-Dec-07 06:33N 58°06' E 006°24'7 6.8
2016-Dec-07 05:32N 58°11' E 006°15'7 6.7
2016-Dec-07 04:33N 58°15' E 006°05'7 7.0
2016-Dec-07 03:33N 58°20' E 005°55'7 7.3
2016-Dec-07 02:33N 58°25' E 005°45'7 6.7
2016-Dec-07 01:33N 58°29' E 005°36'7 7.2
2016-Dec-07 00:34N 58°35' E 005°27'7 7.1
2016-Dec-06 23:34N 58°41' E 005°20'7 6.5
2016-Dec-06 22:34N 58°46' E 005°13'7 6.6
2016-Dec-06 21:33N 58°52' E 005°07'8 7.8
2016-Dec-06 20:34N 58°59' E 004°59'250 5.0
2016-Dec-04 18:11N 63°03' E 006°46'3 3.8
2016-Dec-04 17:22N 63°05' E 006°52'3 3.9
2016-Dec-04 16:33N 63°07' E 006°57'4 4.0
2016-Dec-04 15:33N 63°09' E 007°04'4 3.6
2016-Dec-04 14:33N 63°11' E 007°11'4 3.7
2016-Dec-04 13:33N 63°13' E 007°18'3 2.9
2016-Dec-04 12:33N 63°14' E 007°24'3 2.8
2016-Dec-04 11:33N 63°15' E 007°30'2 2.0
2016-Dec-04 10:33N 63°15' E 007°34'3 3.3
2016-Dec-04 09:33N 63°14' E 007°41'7 6.6
2016-Dec-04 08:33N 63°07' E 007°41'4 3.8
2016-Dec-04 07:31N 63°03' E 007°39'0 0.0
2016-Dec-04 06:31N 63°03' E 007°40'0 0.0
2016-Dec-04 05:31N 63°03' E 007°39'0 0.0
2016-Dec-04 04:31N 63°03' E 007°39'0 0.0
2016-Dec-04 03:31N 63°03' E 007°39'0 0.0
2016-Dec-04 02:31N 63°03' E 007°39'0 0.0
2016-Dec-04 01:31N 63°03' E 007°39'0 0.0
2016-Dec-04 00:31N 63°03' E 007°39'0 0.0
2016-Dec-03 23:31N 63°03' E 007°39'0 0.0
2016-Dec-03 22:33N 63°03' E 007°39'3 3.0
2016-Dec-03 21:33N 63°06' E 007°41'8 7.6
2016-Dec-03 20:33N 63°13' E 007°46'8 7.9
2016-Dec-03 19:33N 63°19' E 007°34'9 8.5
2016-Dec-03 18:33N 63°28' E 007°33'9 7.8
2016-Dec-03 17:27N 63°36' E 007°38'194 8.4
2016-Dec-02 18:25N 66°23' E 011°29'7 7.5
2016-Dec-02 17:33N 66°29' E 011°37'8 7.7
2016-Dec-02 16:33N 66°35' E 011°47'8 8.2
2016-Dec-02 15:33N 66°42' E 011°59'36 8.8
2016-Dec-02 11:28N 67°11' E 012°53'1010.7
2016-Dec-02 10:33N 67°19' E 013°08'5252.0
2016-Dec-02 09:33N 67°58' E 014°38'7 6.9
2016-Dec-02 08:32N 68°02' E 014°53'7 6.8
2016-Dec-02 07:32N 68°06' E 015°08'6 6.0
2016-Dec-02 06:31N 68°09' E 015°22'6 6.3
2016-Dec-02 05:33N 68°13' E 015°35'6 6.2
2016-Dec-02 04:33N 68°12' E 015°18'7 6.6
2016-Dec-02 03:32N 68°12' E 015°00'6 5.7
2016-Dec-02 02:32N 68°18' E 014°58'7 6.5
2016-Dec-02 01:33N 68°24' E 015°06'6 6.1
2016-Dec-02 00:33N 68°29' E 015°12'7 6.6
2016-Dec-01 23:33N 68°34' E 014°60'1 1.1
2016-Dec-01 22:33N 68°35' E 014°57'0 0.0
2016-Dec-01 21:32N 68°35' E 014°57'0 0.0
2016-Dec-01 20:31N 68°35' E 014°57'0 0.0
2016-Dec-01 19:32N 68°35' E 014°57'0 0.0
2016-Dec-01 18:30N 68°35' E 014°57'44 2.0
2016-Nov-30 20:30N 67°54' E 014°11'  

Dump ship's entire track history